Bellevue, Ohio
Current Conditions -  °F | °C
As of 12:33 AM on Sunday 26 Oct 2014 (Local Time) from KPCW Reporting Station
Clear Clear  
Wind Chill: 55°   Ceiling: Unl
Heat Index: 55°   Visibility: 10mi
Dew Point: 39°   Wind: 10mph
Humidity: 54%   Direction: 280°W
Pressure: 29.83"   Gusts: NA
Location:  41.27°N, 82.84°W
Report Text: KPCW 260433Z AUTO 28009KT 10SM CLR 13/04 A2983 RMK AO2 $
Loading
Personal Weather Stations






























Interactive Weather Map
Tropical Storm Tracking
New forecast layout! Learn more

10-Day Weather Forecast

Advertisements
Track Severe Weather on mobile